Buoy 41991

sailwx.info

Track history (hours):
 
Tides and Currents Weather Stations Pressure Air Temp Water Temp Dewpoint Dewpoint Depression Visibility Wind Speed Wind Dir Waves Ship Positions

Drifting buoy 41991

Last reported at 2014-Jul-29 18:14 UTC. Time now 2014-Jul-29 18:53 UTC.
Position N 40°28' W 050°11'.

Water temperature 26.1 ° C

Date/timePositionNaut miles runAvg speedWind from/ knotsBaromVisibWave heightAir tempDewpointWater temp
2014-Jul-29 18:14N 40°28' W 050°11'0 2.2 26.1
2014-Jul-29 18:07N 40°27' W 050°11'0 7.2 26.1
2014-Jul-29 18:03N 40°28' W 050°12'0 0.1 26.1
2014-Jul-29 17:26N 40°28' W 050°12'1 0.8 26.0
2014-Jul-29 15:42N 40°29' W 050°12'3 5.4 25.9
2014-Jul-29 15:14N 40°31' W 050°15'0 0.0 25.9
2014-Jul-29 14:22N 40°31' W 050°15'2 2.7 25.7
2014-Jul-29 13:36N 40°33' W 050°16'0 0.0 25.6
2014-Jul-29 13:30N 40°33' W 050°16'0 0.0 25.6
2014-Jul-29 11:50N 40°33' W 050°16'0 0.0 25.5
2014-Jul-29 10:59N 40°33' W 050°16'0 0.0 25.4
2014-Jul-29 10:00N 40°33' W 050°16'117.9 25.4
2014-Jul-29 09:58N 40°32' W 050°17'0 0.0 25.4
2014-Jul-29 09:19N 40°32' W 050°17'110.9 25.4
2014-Jul-29 09:13N 40°33' W 050°18'0 0.4 25.4
2014-Jul-29 08:25N 40°33' W 050°18'111.3 25.4
2014-Jul-29 08:20N 40°33' W 050°19'0 0.0 25.4
2014-Jul-29 08:16N 40°33' W 050°19'0 0.0 25.4
2014-Jul-29 07:37N 40°33' W 050°19'112.3 25.4
2014-Jul-29 07:32N 40°34' W 050°20'0 0.5 25.4
2014-Jul-29 06:38N 40°34' W 050°20'0 0.0 25.4
2014-Jul-29 05:55N 40°34' W 050°20'327.0 25.4
2014-Jul-29 05:48N 40°35' W 050°24'0 0.0 25.4
2014-Jul-29 04:14N 40°35' W 050°24'0 0.0 25.5
2014-Jul-29 04:08N 40°35' W 050°24'0 0.0 25.5
2014-Jul-29 02:00N 40°35' W 050°24'231.3 25.5
2014-Jul-29 01:57N 40°36' W 050°25'0 0.0 25.5
2014-Jul-29 01:14N 40°36' W 050°25'110.4 25.6
2014-Jul-29 01:10N 40°36' W 050°26'0 0.0 25.6
2014-Jul-29 00:24N 40°36' W 050°26'226.8 25.6
2014-Jul-29 00:20N 40°36' W 050°28'0 0.0 25.6
2014-Jul-28 23:37N 40°36' W 050°28'0 0.0 25.6
2014-Jul-28 23:32N 40°36' W 050°28'1 1.3 25.6
2014-Jul-28 22:47N 40°37' W 050°29'1 8.5 25.6
2014-Jul-28 22:37N 40°36' W 050°31'0 0.0 25.6
2014-Jul-28 21:08N 40°36' W 050°31'0 0.0 25.7
2014-Jul-28 20:59N 40°36' W 050°31'1 0.8 25.7
2014-Jul-28 20:00N 40°37' W 050°32'1 2.1 25.7
2014-Jul-28 19:28N 40°36' W 050°33'1 0.8 25.7
2014-Jul-28 18:24N 40°36' W 050°34'0 0.4 25.6
2014-Jul-28 17:37N 40°36' W 050°34'2 1.9 25.6
2014-Jul-28 16:42N 40°36' W 050°37'0 0.0 25.6
2014-Jul-28 15:54N 40°36' W 050°37'2 1.6 25.5
2014-Jul-28 14:42N 40°36' W 050°39'0 0.1 25.3
2014-Jul-28 14:12N 40°36' W 050°39'0 1.7 25.2
2014-Jul-28 13:56N 40°35' W 050°39'2 1.0 25.2
2014-Jul-28 12:13N 40°36' W 050°41'121.2 25.1
2014-Jul-28 12:09N 40°36' W 050°42'1 0.6 25.1
2014-Jul-28 11:17N 40°36' W 050°43'0 0.3 25.1
2014-Jul-28 10:13N 40°36' W 050°43'1 1.5 25.1
2014-Jul-28 09:46N 40°36' W 050°44'116.0 25.1
2014-Jul-28 09:41N 40°36' W 050°46'0 0.0 25.1
2014-Jul-28 08:55N 40°36' W 050°46'0 1.6 25.1
2014-Jul-28 08:37N 40°36' W 050°46'1 6.0 25.2
2014-Jul-28 08:31N 40°35' W 050°47'0 0.0 25.2
2014-Jul-28 07:58N 40°35' W 050°47'0 0.0 25.2
2014-Jul-28 07:49N 40°35' W 050°47'1 5.5 25.2
2014-Jul-28 07:43N 40°35' W 050°47'0 0.0 25.2
2014-Jul-28 07:13N 40°35' W 050°47'1 2.3 25.3
2014-Jul-28 06:57N 40°34' W 050°48'0 3.8 25.3
2014-Jul-28 06:52N 40°34' W 050°48'1 0.9 25.3
2014-Jul-28 06:11N 40°34' W 050°49'0 0.0 25.4
2014-Jul-28 06:03N 40°34' W 050°49'247.5 25.4
2014-Jul-28 06:00N 40°34' W 050°52'0 0.0 25.4
2014-Jul-28 04:27N 40°34' W 050°52'540.5 25.4
2014-Jul-28 04:20N 40°31' W 050°57'0 0.0 25.4
2014-Jul-28 02:24N 40°31' W 050°57'0 0.0 25.5
2014-Jul-28 01:36N 40°31' W 050°57'1 1.1 25.6
2014-Jul-28 00:46N 40°31' W 050°58'0 0.2 25.7
2014-Jul-27 23:53N 40°31' W 050°59'1 1.3 25.7
2014-Jul-27 23:19N 40°30' W 050°59'1 7.5 25.7
2014-Jul-27 23:13N 40°31' W 050°59'1 6.4 25.7
2014-Jul-27 23:06N 40°30' W 050°59'214.0 25.7
2014-Jul-27 22:57N 40°29' W 051°02'0 0.0 25.7
2014-Jul-27 22:11N 40°29' W 051°02'0 0.0 25.8
2014-Jul-27 21:39N 40°29' W 051°02'2 1.2 25.8
2014-Jul-27 20:13N 40°28' W 051°04'1 2.7 26.2
2014-Jul-27 19:52N 40°27' W 051°04'214.1 26.3
2014-Jul-27 19:45N 40°26' W 051°06'0 0.0 26.3
2014-Jul-27 18:37N 40°26' W 051°06'0 0.0 26.3
2014-Jul-27 18:35N 40°26' W 051°06'0 3.7 26.3
2014-Jul-27 18:28N 40°26' W 051°05'1 1.6 26.3
2014-Jul-27 18:08N 40°26' W 051°06'0 1.2 26.3
2014-Jul-27 17:45N 40°26' W 051°06'2 2.3 26.2
2014-Jul-27 16:53N 40°25' W 051°08'0 0.0 26.2
2014-Jul-27 16:05N 40°25' W 051°08'6 3.4 25.9
2014-Jul-27 14:22N 40°21' W 051°14'0 0.0 25.1
2014-Jul-27 14:13N 40°21' W 051°14'0 0.0 25.2
2014-Jul-27 12:35N 40°21' W 051°14'2 2.3 25.0
2014-Jul-27 11:38N 40°20' W 051°17'0 0.0 24.9
2014-Jul-27 11:04N 40°20' W 051°17'0 0.1 24.9
2014-Jul-27 10:25N 40°20' W 051°17'0 1.8 24.9
2014-Jul-27 10:10N 40°20' W 051°17'0 0.0 24.9
2014-Jul-27 10:07N 40°20' W 051°17'112.8 24.9
2014-Jul-27 10:00N 40°19' W 051°18'0 0.0 24.9
2014-Jul-27 09:28N 40°19' W 051°18'1 1.7 24.9
2014-Jul-27 08:47N 40°18' W 051°20'0 0.0 24.9
2014-Jul-27 08:43N 40°18' W 051°20'1 2.5 24.9
2014-Jul-27 08:29N 40°18' W 051°20'1 2.5 24.9
2014-Jul-27 07:58N 40°17' W 051°21'1 2.2 25.0
2014-Jul-27 07:44N 40°17' W 051°21'0 0.0 25.0
2014-Jul-27 07:07N 40°17' W 051°21'118.6 25.0
2014-Jul-27 07:03N 40°16' W 051°23'0 0.0 25.0
2014-Jul-27 06:22N 40°16' W 051°23'319.2 25.0
2014-Jul-27 06:13N 40°14' W 051°25'0 0.0 25.0
2014-Jul-27 04:39N 40°14' W 051°25'551.7 25.0
2014-Jul-27 04:33N 40°10' W 051°29'0 0.0 25.0
2014-Jul-27 04:30N 40°10' W 051°29'0 0.0 25.0
2014-Jul-27 01:58N 40°10' W 051°29'0 0.0 25.1
2014-Jul-27 00:59N 40°10' W 051°29'178.8 25.1
2014-Jul-27 00:58N 40°09' W 051°31'0 0.0 25.1
2014-Jul-27 00:13N 40°09' W 051°31'013.2 25.1
2014-Jul-27 00:11N 40°09' W 051°31'1 1.7 25.1
2014-Jul-26 23:48N 40°08' W 051°32'1 3.1 25.1
2014-Jul-26 23:27N 40°07' W 051°32'2 1.8 25.1
2014-Jul-26 22:12N 40°06' W 051°35'0 0.0 25.1
2014-Jul-26 21:50N 40°06' W 051°35'0 0.1 25.1
2014-Jul-26 20:28N 40°06' W 051°35'0 0.6 25.1
2014-Jul-26 20:14N 40°06' W 051°35'2 1.7 25.1
2014-Jul-26 18:47N 40°05' W 051°38'1 8.5 25.1
2014-Jul-26 18:41N 40°05' W 051°39'0 0.0 25.1
2014-Jul-26 18:31N 40°05' W 051°39'0 0.0 25.1
2014-Jul-26 17:59N 40°05' W 051°39'3 2.6 25.1
2014-Jul-26 17:00N 40°04' W 051°42'0 0.0 25.1
2014-Jul-26 16:17N 40°04' W 051°42'1 9.7 25.1
2014-Jul-26 16:12N 40°04' W 051°41'3 1.8 25.1
2014-Jul-26 14:37N 40°03' W 051°45'392.6 25.1
2014-Jul-26 14:35N 40°02' W 051°49'0 0.0 25.1
2014-Jul-26 14:30N 40°02' W 051°49'0 0.0 25.1
2014-Jul-26 13:45N 40°02' W 051°49'2 0.9 25.1
2014-Jul-26 12:00N 40°02' W 051°51'011.6 25.1
2014-Jul-26 11:58N 40°02' W 051°50'2 1.6 25.1
2014-Jul-26 10:34N 40°02' W 051°53'111.2 25.1
2014-Jul-26 10:27N 40°01' W 051°55'0 0.0 25.1
2014-Jul-26 09:59N 40°01' W 051°55'0 1.1 25.1
2014-Jul-26 09:55N 40°01' W 051°55'2 1.9 25.1
2014-Jul-26 09:00N 40°01' W 051°57'0 5.2 25.2
2014-Jul-26 08:55N 40°01' W 051°57'120.0 25.2
2014-Jul-26 08:53N 40°01' W 051°58'0 0.0 25.2
2014-Jul-26 08:14N 40°01' W 051°58'110.8 25.2
2014-Jul-26 08:06N 40°00' W 052°00'1 0.9 25.2
2014-Jul-26 06:37N 40°00' W 052°02'0 0.0 25.3
2014-Jul-26 06:32N 40°00' W 052°02'213.7 25.3
2014-Jul-26 06:23N 39°60' W 052°04'0 0.0 25.3
2014-Jul-26 04:50N 39°60' W 052°04'637.5 25.4
2014-Jul-26 04:41N 40°00' W 052°12'2 0.7 25.4
2014-Jul-26 01:27N 40°01' W 052°14'0 0.0 25.4
2014-Jul-26 00:41N 40°01' W 052°14'0 0.0 25.4
2014-Jul-26 00:35N 40°01' W 052°14'1 2.8 25.4
2014-Jul-26 00:17N 40°01' W 052°15'0 0.0 25.4
2014-Jul-25 23:47N 40°01' W 052°15'1 1.4 25.5
2014-Jul-25 22:59N 40°01' W 052°17'1 8.0 25.5
2014-Jul-25 22:54N 40°01' W 052°18'0 0.0 25.5
2014-Jul-25 22:39N 40°01' W 052°18'4 7.4 25.5
2014-Jul-25 22:05N 40°02' W 052°23'1 0.9 25.5
2014-Jul-25 20:59N 40°02' W 052°22'1 3.5 25.6
2014-Jul-25 20:40N 40°03' W 052°23'3 1.8 25.6
2014-Jul-25 18:58N 40°03' W 052°26'0 0.0
2014-Jul-25 18:55N 40°03' W 052°26'1 1.8 25.7
2014-Jul-25 18:10N 40°03' W 052°28'3 2.7 25.6
2014-Jul-25 17:13N 40°04' W 052°31'3 3.9 25.6
2014-Jul-25 16:27N 40°05' W 052°35'0 0.0 25.6
2014-Jul-25 14:57N 40°05' W 052°35'329.0 25.5
2014-Jul-25 14:50N 40°07' W 052°39'0 0.0 25.5
2014-Jul-25 14:45N 40°07' W 052°39'0 0.0 25.4
2014-Jul-25 14:06N 40°07' W 052°39'0 0.0 25.4
2014-Jul-25 13:14N 40°07' W 052°39'1 1.9 25.3
2014-Jul-25 12:26N 40°07' W 052°41'325.3 25.3
2014-Jul-25 12:19N 40°09' W 052°44'0 0.0 25.3
2014-Jul-25 10:55N 40°09' W 052°44'136.6 25.2
2014-Jul-25 10:53N 40°09' W 052°45'330.9 25.2
2014-Jul-25 10:48N 40°10' W 052°49'3 8.6 25.2
2014-Jul-25 10:30N 40°09' W 052°45'338.7 25.2
2014-Jul-25 10:26N 40°10' W 052°49'0 0.0 25.2
2014-Jul-25 09:20N 40°10' W 052°49'0 1.7 25.2
2014-Jul-25 09:10N 40°10' W 052°49'118.5 25.2
2014-Jul-25 09:06N 40°11' W 052°50'0 0.0 25.2
2014-Jul-25 09:03N 40°11' W 052°50'1 5.9 25.2
2014-Jul-25 08:50N 40°10' W 052°49'1 2.4 25.2
2014-Jul-25 08:18N 40°11' W 052°50'224.9
2014-Jul-25 08:14N 40°11' W 052°52'0 0.0 25.2
2014-Jul-25 07:28N 40°11' W 052°52'1 6.7 25.2
2014-Jul-25 07:21N 40°12' W 052°53'1 2.8 25.2
2014-Jul-25 07:07N 40°12' W 052°54'1024.7 25.2
2014-Jul-25 06:42N 40°17' W 053°05'0 0.0 25.3
2014-Jul-25 06:33N 40°17' W 053°05'0 0.0 25.3
2014-Jul-25 05:00N 40°17' W 053°05'0 0.0 25.3
2014-Jul-25 04:55N 40°17' W 053°05'0 0.0 25.3
2014-Jul-25 04:49N 40°17' W 053°05'1 0.5 25.3
2014-Jul-25 01:47N 40°17' W 053°07'0 0.0 25.4
2014-Jul-25 01:39N 40°17' W 053°07'0 0.2 25.4
2014-Jul-25 00:59N 40°17' W 053°07'187.7 25.4
2014-Jul-25 00:58N 40°18' W 053°09'0 0.0 25.4
2014-Jul-25 00:09N 40°18' W 053°09'211.7 25.4
2014-Jul-24 23:59N 40°19' W 053°10'2 2.7 25.4
2014-Jul-24 23:18N 40°20' W 053°12'218.2 25.4
2014-Jul-24 23:12N 40°19' W 053°10'2 2.5 25.3
2014-Jul-24 22:28N 40°20' W 053°12'2 1.9 25.3
2014-Jul-24 21:34N 40°20' W 053°15'1 1.6 25.2
2014-Jul-24 21:00N 40°20' W 053°16'0 2.3 25.3
2014-Jul-24 20:50N 40°21' W 053°16'3 1.9 25.3
2014-Jul-24 19:26N 40°21' W 053°20'1 6.1 25.1
2014-Jul-24 19:13N 40°22' W 053°21'0 0.0 25.1
2014-Jul-24 19:10N 40°22' W 053°21'0 0.0 25.1
2014-Jul-24 19:06N 40°22' W 053°21'0 0.0 25.1
2014-Jul-24 18:20N 40°22' W 053°21'4 4.2 25.1
2014-Jul-24 17:26N 40°23' W 053°26'0 0.5 25.0
2014-Jul-24 16:38N 40°23' W 053°25'0 0.6 25.0
2014-Jul-24 15:59N 40°23' W 053°26'3 4.4 25.0
2014-Jul-24 15:18N 40°24' W 053°30'2 7.0 24.8
2014-Jul-24 14:58N 40°25' W 053°32'0 0.0 24.7
2014-Jul-24 14:26N 40°25' W 053°32'0 0.0 24.5
2014-Jul-24 13:40N 40°25' W 053°32'0 0.8 24.4
2014-Jul-24 13:33N 40°25' W 053°33'2 2.6 24.4
2014-Jul-24 12:41N 40°25' W 053°35'575.2 24.4
2014-Jul-24 12:37N 40°26' W 053°42'0 0.0 24.4
2014-Jul-24 11:19N 40°26' W 053°42'0 0.0 24.4
2014-Jul-24 10:59N 40°26' W 053°42'0 0.0 24.4
2014-Jul-24 10:58N 40°26' W 053°42'0 0.0 24.4
2014-Jul-24 09:46N 40°26' W 053°42'1 4.7 24.4
2014-Jul-24 09:37N 40°26' W 053°43'0 0.0 24.4
2014-Jul-24 09:23N 40°26' W 053°43'3 3.2 24.4
2014-Jul-24 08:28N 40°26' W 053°47'0 1.0 24.4
2014-Jul-24 08:03N 40°26' W 053°47'0 1.1 24.4
2014-Jul-24 07:41N 40°26' W 053°47'024.7
2014-Jul-24 07:40N 40°26' W 053°47'1 5.5 24.4
2014-Jul-24 07:34N 40°26' W 053°48'0 0.0 24.4
2014-Jul-24 06:55N 40°26' W 053°48'0 2.9 24.4
2014-Jul-24 06:48N 40°26' W 053°48'3 1.6 24.4
2014-Jul-24 05:12N 40°26' W 053°52'641.3 24.4
2014-Jul-24 05:04N 40°27' W 053°59'0 0.0 24.4
2014-Jul-24 02:06N 40°27' W 053°59'220.5 24.5
2014-Jul-24 01:59N 40°27' W 054°02'0 0.0 24.5
2014-Jul-24 01:22N 40°27' W 054°02'0 0.0 24.6
2014-Jul-24 01:20N 40°27' W 054°02'0 0.1 24.6
2014-Jul-24 00:28N 40°27' W 054°01'2 3.2 24.7
2014-Jul-23 23:43N 40°27' W 054°05'2137.7 24.7
2014-Jul-23 23:42N 40°27' W 054°08'0 0.0 24.7
2014-Jul-23 23:38N 40°27' W 054°08'0 0.0 24.7
2014-Jul-23 23:33N 40°27' W 054°08'0 0.0 24.7
2014-Jul-23 22:45N 40°27' W 054°08'2 2.3 24.9
2014-Jul-23 22:00N 40°27' W 054°10'3 4.9 24.9
2014-Jul-23 21:28N 40°26' W 054°13'0 0.0 24.9
2014-Jul-23 20:59N 40°26' W 054°13'126.3 24.9
2014-Jul-23 20:56N 40°26' W 054°15'1 0.9 24.9
2014-Jul-23 19:48N 40°26' W 054°16'3 6.0 25.1
2014-Jul-23 19:20N 40°25' W 054°20'222.8
2014-Jul-23 19:14N 40°24' W 054°22'0 0.0
2014-Jul-23 18:30N 40°24' W 054°22'0 0.0 25.5
2014-Jul-23 17:38N 40°24' W 054°22'3 2.8 25.7
2014-Jul-23 16:44N 40°23' W 054°26'3 2.5 25.6
2014-Jul-23 15:37N 40°23' W 054°29'0 0.0 25.3
2014-Jul-23 15:30N 40°23' W 054°29'410.4
2014-Jul-23 15:06N 40°21' W 054°34'0 0.0 25.3
2014-Jul-23 14:45N 40°21' W 054°34'7 8.8 25.1
2014-Jul-23 14:00N 40°19' W 054°42'0 0.0 24.8
2014-Jul-23 13:00N 40°19' W 054°42'0 0.0 24.4
2014-Jul-23 12:13N 40°19' W 054°42'0 0.0 24.2
2014-Jul-23 11:41N 40°19' W 054°42'0 0.0 24.2
2014-Jul-23 10:10N 40°19' W 054°42'0 5.8 24.2
2014-Jul-23 10:07N 40°19' W 054°42'435.8 24.2
2014-Jul-23 10:00N 40°18' W 054°47'439.0 24.2
2014-Jul-23 09:54N 40°19' W 054°42'411.2 24.2
2014-Jul-23 09:33N 40°18' W 054°47'0 0.0 24.2
2014-Jul-23 08:14N 40°18' W 054°47'1 2.9 24.2
2014-Jul-23 07:51N 40°17' W 054°48'239.0 24.2
2014-Jul-23 07:48N 40°17' W 054°51'0 0.0 24.2
2014-Jul-23 06:59N 40°17' W 054°51'480.3 24.2
2014-Jul-23 06:56N 40°15' W 054°55'0 0.0 24.2
2014-Jul-23 05:23N 40°15' W 054°55'740.3 24.2
2014-Jul-23 05:12N 40°11' W 055°04'0 0.0 24.2
2014-Jul-23 02:27N 40°11' W 055°04'772.2 24.2
2014-Jul-23 02:21N 40°07' W 055°12'0 0.0 24.2
2014-Jul-23 01:38N 40°07' W 055°12'0 0.0 24.2
2014-Jul-23 00:45N 40°07' W 055°12'0 0.0 24.3
2014-Jul-23 00:13N 40°07' W 055°12'0 1.6 24.3
2014-Jul-22 23:59N 40°07' W 055°12'438.0 24.3
2014-Jul-22 23:53N 40°05' W 055°15'0 0.0 24.3
2014-Jul-22 23:09N 40°05' W 055°15'0 0.0 24.3
2014-Jul-22 23:00N 40°05' W 055°15'3 2.2 24.3
2014-Jul-22 21:52N 40°03' W 055°18'0 0.0 24.3
2014-Jul-22 21:13N 40°03' W 055°18'438.9 24.3
2014-Jul-22 21:07N 40°01' W 055°22'7 7.2 24.3
2014-Jul-22 20:12N 39°56' W 055°28'0 0.0 24.3
2014-Jul-22 19:31N 39°56' W 055°28'0 0.0 24.3
2014-Jul-22 18:41N 39°56' W 055°28'0 0.0 24.3
2014-Jul-22 18:36N 39°56' W 055°28'0 0.0 24.3
2014-Jul-22 18:34N 39°56' W 055°28'0 0.0
2014-Jul-22 18:27N 39°56' W 055°28'2 2.5 24.3
2014-Jul-22 17:49N 39°55' W 055°29'0 0.0 24.3
2014-Jul-22 17:00N 39°55' W 055°29'5 4.2 24.3
2014-Jul-22 15:52N 39°51' W 055°34'0 0.0 24.2
2014-Jul-22 15:18N 39°51' W 055°34'421.8 24.2
2014-Jul-22 15:07N 39°48' W 055°37'810.6 24.2
2014-Jul-22 14:21N 39°44' W 055°46'0 0.0 24.2
2014-Jul-22 12:32N 39°44' W 055°46'0 0.1 24.2
2014-Jul-22 10:34N 39°44' W 055°46'1 4.2 24.2
2014-Jul-22 10:22N 39°43' W 055°45'5 7.5 24.2
2014-Jul-22 09:39N 39°41' W 055°52'1 1.2 24.2
2014-Jul-22 08:56N 39°42' W 055°51'210.2 24.2
2014-Jul-22 08:44N 39°41' W 055°53'0 0.0 24.2
2014-Jul-22 07:57N 39°41' W 055°53'3184.4 24.2
2014-Jul-22 07:56N 39°40' W 055°57'0 0.1 24.2
2014-Jul-22 07:13N 39°40' W 055°57'211.1 24.2
2014-Jul-22 07:00N 39°38' W 055°59'1115.0 24.2
2014-Jul-22 06:18N 39°33' W 056°11'0 0.0 24.2
2014-Jul-22 05:31N 39°33' W 056°11'0 0.0 24.2
2014-Jul-22 02:49N 39°33' W 056°11'3 3.1 24.2
2014-Jul-22 01:59N 39°32' W 056°14'2 2.4 24.2
2014-Jul-22 01:11N 39°31' W 056°16'0 0.0 24.2
2014-Jul-22 01:05N 39°31' W 056°16'330.7 24.2
2014-Jul-22 01:00N 39°30' W 056°19'2 4.0 24.2
2014-Jul-22 00:23N 39°30' W 056°23'0 0.0 24.2
2014-Jul-21 23:31N 39°30' W 056°23'3 7.9 24.2
2014-Jul-21 23:08N 39°27' W 056°25'0 0.0 24.2
2014-Jul-21 22:14N 39°27' W 056°25'265.3 24.2
2014-Jul-21 22:12N 39°27' W 056°28'0 0.0 24.2
2014-Jul-21 21:28N 39°27' W 056°28'0 0.0 24.2
2014-Jul-21 21:23N 39°27' W 056°28'120.9 24.2
2014-Jul-21 21:19N 39°27' W 056°30'0 0.0 24.2
2014-Jul-21 20:40N 39°27' W 056°30'578.5 24.2
2014-Jul-21 20:36N 39°28' W 056°37'0 0.0 24.2
2014-Jul-21 19:43N 39°28' W 056°37'2 3.2 24.2
2014-Jul-21 18:56N 39°26' W 056°35'0 0.0 24.2
2014-Jul-21 18:53N 39°26' W 056°35'1096.5 24.2
2014-Jul-21 18:47N 39°27' W 056°48'0 0.0 24.2
2014-Jul-21 17:59N 39°27' W 056°48'0 0.0 24.2
2014-Jul-21 17:11N 39°27' W 056°48'1 0.6 24.2
2014-Jul-21 15:29N 39°26' W 056°48'1 1.7 24.2
2014-Jul-21 14:41N 39°27' W 056°49'744.5 24.2
2014-Jul-21 14:31N 39°27' W 056°59'0 0.0 24.2
2014-Jul-21 13:48N 39°27' W 056°59'0 0.0 24.2
2014-Jul-21 11:59N 39°27' W 056°59'1 0.5 24.2
2014-Jul-21 10:58N 39°27' W 056°58'213.7 24.2
2014-Jul-21 10:49N 39°28' W 057°01'2 2.1 24.2
2014-Jul-21 09:51N 39°29' W 057°03'0 0.8 24.1
2014-Jul-21 09:13N 39°29' W 057°02'236.3 24.1
2014-Jul-21 09:10N 39°30' W 057°04'0 0.1 24.1
2014-Jul-21 08:14N 39°30' W 057°04'124.7 24.1
2014-Jul-21 08:11N 39°31' W 057°05'0 0.0 24.1
2014-Jul-21 07:33N 39°31' W 057°05'0 0.0 24.1
2014-Jul-21 07:30N 39°31' W 057°05'0 0.0
2014-Jul-21 07:28N 39°31' W 057°05'423.4 24.2
2014-Jul-21 07:19N 39°34' W 057°07'0 0.0 24.2
2014-Jul-21 05:45N 39°34' W 057°07'547.7 24.2
2014-Jul-21 05:39N 39°38' W 057°09'0 0.0 24.2
2014-Jul-21 05:36N 39°38' W 057°09'0 0.0 24.2
2014-Jul-21 03:59N 39°38' W 057°09'0 0.0 24.0
2014-Jul-21 03:08N 39°38' W 057°09'0 0.3 24.0
2014-Jul-21 02:19N 39°39' W 057°10'1 1.7 24.0
2014-Jul-21 01:31N 39°40' W 057°09'2 2.9 24.0
2014-Jul-21 00:43N 39°42' W 057°08'0 0.0 24.0
2014-Jul-20 23:51N 39°42' W 057°08'1 4.6 24.0
2014-Jul-20 23:39N 39°43' W 057°09'1 1.6 24.1
2014-Jul-20 22:58N 39°44' W 057°09'2 2.5 24.1
2014-Jul-20 21:57N 39°46' W 057°08'2 5.3 24.0
2014-Jul-20 21:34N 39°48' W 057°07'0 0.0 24.1
2014-Jul-20 21:31N 39°48' W 057°07'0 0.0 24.1
2014-Jul-20 20:57N 39°48' W 057°07'2 3.5 24.1
2014-Jul-20 20:14N 39°51' W 057°07'0 0.0 24.1
2014-Jul-20 19:56N 39°51' W 057°07'1 1.7 24.1
2014-Jul-20 19:24N 39°52' W 057°06'0 1.8 24.0
2014-Jul-20 19:13N 39°52' W 057°07'0 0.0 24.0
2014-Jul-20 19:04N 39°52' W 057°07'446.5 24.0
2014-Jul-20 18:59N 39°55' W 057°04'0 0.0 24.0
2014-Jul-20 18:13N 39°55' W 057°04'0 0.1 24.0
2014-Jul-20 17:24N 39°55' W 057°04'4 2.3 24.0
2014-Jul-20 15:41N 39°59' W 057°03'0 0.0 24.0
2014-Jul-20 15:00N 39°59' W 057°03'322.6 24.0
2014-Jul-20 14:53N 40°02' W 057°02'0 0.0 24.0
2014-Jul-20 14:08N 40°02' W 057°02'0 0.0 24.0
2014-Jul-20 13:20N 40°02' W 057°02'322.7 24.0
2014-Jul-20 13:13N 40°04' W 057°02'3 3.8 24.0
2014-Jul-20 12:28N 40°07' W 057°01'0 0.0 24.0
2014-Jul-20 12:21N 40°07' W 057°01'0 0.0 24.0
2014-Jul-20 11:24N 40°07' W 057°01'0 0.0 24.0
2014-Jul-20 11:21N 40°07' W 057°01'0 0.0 24.0
2014-Jul-20 11:14N 40°07' W 057°01'2 1.4 24.0
2014-Jul-20 10:00N 40°07' W 056°59'2 8.4 24.0
2014-Jul-20 09:48N 40°08' W 057°01'223.5 24.0
2014-Jul-20 09:44N 40°08' W 056°59'2 1.5 24.0
2014-Jul-20 08:28N 40°09' W 056°59'210.1 23.9
2014-Jul-20 08:19N 40°11' W 056°59'1 4.0 23.9
2014-Jul-20 08:08N 40°10' W 056°59'1 4.8 23.9
2014-Jul-20 07:59N 40°11' W 056°59'0 0.0 23.9
2014-Jul-20 07:38N 40°11' W 056°59'0 2.6 23.9
2014-Jul-20 07:31N 40°11' W 056°59'910.6 23.9
2014-Jul-20 06:42N 40°19' W 056°54'0 0.0 24.0
2014-Jul-20 05:54N 40°19' W 056°54'0 0.0 24.0
2014-Jul-20 05:47N 40°19' W 056°54'0 0.0 24.0
2014-Jul-20 01:43N 40°19' W 056°54'3 3.7 24.1
2014-Jul-20 01:00N 40°20' W 056°51'0 0.0
2014-Jul-20 00:12N 40°20' W 056°51'0 0.0 24.2
2014-Jul-20 00:08N 40°20' W 056°51'0 9.0 24.2
2014-Jul-20 00:05N 40°20' W 056°50'3 3.7 24.2
2014-Jul-19 23:22N 40°23' W 056°50'0 0.0 24.2
2014-Jul-19 22:32N 40°23' W 056°50'0 0.0 24.2
2014-Jul-19 21:44N 40°23' W 056°50'0 0.0
2014-Jul-19 21:30N 40°23' W 056°50'1 1.8 24.2
2014-Jul-19 20:43N 40°24' W 056°50'0 0.0 24.4
2014-Jul-19 20:08N 40°24' W 056°50'211.7 24.5
2014-Jul-19 20:00N 40°26' W 056°49'0 0.0 24.5
2014-Jul-19 19:50N 40°26' W 056°49'0 0.0 24.5
2014-Jul-19 19:14N 40°26' W 056°49'0 0.0 24.5
2014-Jul-19 19:11N 40°26' W 056°49'0 0.2 24.5
2014-Jul-19 18:24N 40°25' W 056°49'   24.5
Track history (hours):
 
Tides and Currents Weather Stations Pressure Air Temp Water Temp Dewpoint Dewpoint Depression Visibility Wind Speed Wind Dir Waves Ship Positions

Drifting buoy 41991

Last reported at 2014-Jul-29 18:14 UTC. Time now 2014-Jul-29 18:53 UTC.
Position N 40°28' W 050°11'.

Water temperature 26.1 ° C

Date/timePositionNaut miles runAvg speedWind from/ knotsBaromVisibWave heightAir tempDewpointWater temp
2014-Jul-29 18:14N 40°28' W 050°11'0 2.2 26.1
2014-Jul-29 18:07N 40°27' W 050°11'0 7.2 26.1
2014-Jul-29 18:03N 40°28' W 050°12'0 0.1 26.1
2014-Jul-29 17:26N 40°28' W 050°12'1 0.8 26.0
2014-Jul-29 15:42N 40°29' W 050°12'3 5.4 25.9
2014-Jul-29 15:14N 40°31' W 050°15'0 0.0 25.9
2014-Jul-29 14:22N 40°31' W 050°15'2 2.7 25.7
2014-Jul-29 13:36N 40°33' W 050°16'0 0.0 25.6
2014-Jul-29 13:30N 40°33' W 050°16'0 0.0 25.6
2014-Jul-29 11:50N 40°33' W 050°16'0 0.0 25.5
2014-Jul-29 10:59N 40°33' W 050°16'0 0.0 25.4
2014-Jul-29 10:00N 40°33' W 050°16'117.9 25.4
2014-Jul-29 09:58N 40°32' W 050°17'0 0.0 25.4
2014-Jul-29 09:19N 40°32' W 050°17'110.9 25.4
2014-Jul-29 09:13N 40°33' W 050°18'0 0.4 25.4
2014-Jul-29 08:25N 40°33' W 050°18'111.3 25.4
2014-Jul-29 08:20N 40°33' W 050°19'0 0.0 25.4
2014-Jul-29 08:16N 40°33' W 050°19'0 0.0 25.4
2014-Jul-29 07:37N 40°33' W 050°19'112.3 25.4
2014-Jul-29 07:32N 40°34' W 050°20'0 0.5 25.4
2014-Jul-29 06:38N 40°34' W 050°20'0 0.0 25.4
2014-Jul-29 05:55N 40°34' W 050°20'327.0 25.4
2014-Jul-29 05:48N 40°35' W 050°24'0 0.0 25.4
2014-Jul-29 04:14N 40°35' W 050°24'0 0.0 25.5
2014-Jul-29 04:08N 40°35' W 050°24'0 0.0 25.5
2014-Jul-29 02:00N 40°35' W 050°24'231.3 25.5
2014-Jul-29 01:57N 40°36' W 050°25'0 0.0 25.5
2014-Jul-29 01:14N 40°36' W 050°25'110.4 25.6
2014-Jul-29 01:10N 40°36' W 050°26'0 0.0 25.6
2014-Jul-29 00:24N 40°36' W 050°26'226.8 25.6
2014-Jul-29 00:20N 40°36' W 050°28'0 0.0 25.6
2014-Jul-28 23:37N 40°36' W 050°28'0 0.0 25.6
2014-Jul-28 23:32N 40°36' W 050°28'1 1.3 25.6
2014-Jul-28 22:47N 40°37' W 050°29'1 8.5 25.6
2014-Jul-28 22:37N 40°36' W 050°31'0 0.0 25.6
2014-Jul-28 21:08N 40°36' W 050°31'0 0.0 25.7
2014-Jul-28 20:59N 40°36' W 050°31'1 0.8 25.7
2014-Jul-28 20:00N 40°37' W 050°32'1 2.1 25.7
2014-Jul-28 19:28N 40°36' W 050°33'1 0.8 25.7
2014-Jul-28 18:24N 40°36' W 050°34'0 0.4 25.6
2014-Jul-28 17:37N 40°36' W 050°34'2 1.9 25.6
2014-Jul-28 16:42N 40°36' W 050°37'0 0.0 25.6
2014-Jul-28 15:54N 40°36' W 050°37'2 1.6 25.5
2014-Jul-28 14:42N 40°36' W 050°39'0 0.1 25.3
2014-Jul-28 14:12N 40°36' W 050°39'0 1.7 25.2
2014-Jul-28 13:56N 40°35' W 050°39'2 1.0 25.2
2014-Jul-28 12:13N 40°36' W 050°41'121.2 25.1
2014-Jul-28 12:09N 40°36' W 050°42'1 0.6 25.1
2014-Jul-28 11:17N 40°36' W 050°43'0 0.3 25.1
2014-Jul-28 10:13N 40°36' W 050°43'1 1.5 25.1
2014-Jul-28 09:46N 40°36' W 050°44'116.0 25.1
2014-Jul-28 09:41N 40°36' W 050°46'0 0.0 25.1
2014-Jul-28 08:55N 40°36' W 050°46'0 1.6 25.1
2014-Jul-28 08:37N 40°36' W 050°46'1 6.0 25.2
2014-Jul-28 08:31N 40°35' W 050°47'0 0.0 25.2
2014-Jul-28 07:58N 40°35' W 050°47'0 0.0 25.2
2014-Jul-28 07:49N 40°35' W 050°47'1 5.5 25.2
2014-Jul-28 07:43N 40°35' W 050°47'0 0.0 25.2
2014-Jul-28 07:13N 40°35' W 050°47'1 2.3 25.3
2014-Jul-28 06:57N 40°34' W 050°48'0 3.8 25.3
2014-Jul-28 06:52N 40°34' W 050°48'1 0.9 25.3
2014-Jul-28 06:11N 40°34' W 050°49'0 0.0 25.4
2014-Jul-28 06:03N 40°34' W 050°49'247.5 25.4
2014-Jul-28 06:00N 40°34' W 050°52'0 0.0 25.4
2014-Jul-28 04:27N 40°34' W 050°52'540.5 25.4
2014-Jul-28 04:20N 40°31' W 050°57'0 0.0 25.4
2014-Jul-28 02:24N 40°31' W 050°57'0 0.0 25.5
2014-Jul-28 01:36N 40°31' W 050°57'1 1.1 25.6
2014-Jul-28 00:46N 40°31' W 050°58'0 0.2 25.7
2014-Jul-27 23:53N 40°31' W 050°59'1 1.3 25.7
2014-Jul-27 23:19N 40°30' W 050°59'1 7.5 25.7
2014-Jul-27 23:13N 40°31' W 050°59'1 6.4 25.7
2014-Jul-27 23:06N 40°30' W 050°59'214.0 25.7
2014-Jul-27 22:57N 40°29' W 051°02'0 0.0 25.7
2014-Jul-27 22:11N 40°29' W 051°02'0 0.0 25.8
2014-Jul-27 21:39N 40°29' W 051°02'2 1.2 25.8
2014-Jul-27 20:13N 40°28' W 051°04'1 2.7 26.2
2014-Jul-27 19:52N 40°27' W 051°04'214.1 26.3
2014-Jul-27 19:45N 40°26' W 051°06'0 0.0 26.3
2014-Jul-27 18:37N 40°26' W 051°06'0 0.0 26.3
2014-Jul-27 18:35N 40°26' W 051°06'0 3.7 26.3
2014-Jul-27 18:28N 40°26' W 051°05'1 1.6 26.3
2014-Jul-27 18:08N 40°26' W 051°06'0 1.2 26.3
2014-Jul-27 17:45N 40°26' W 051°06'2 2.3 26.2
2014-Jul-27 16:53N 40°25' W 051°08'0 0.0 26.2
2014-Jul-27 16:05N 40°25' W 051°08'6 3.4 25.9
2014-Jul-27 14:22N 40°21' W 051°14'0 0.0 25.1
2014-Jul-27 14:13N 40°21' W 051°14'0 0.0 25.2
2014-Jul-27 12:35N 40°21' W 051°14'2 2.3 25.0
2014-Jul-27 11:38N 40°20' W 051°17'0 0.0 24.9
2014-Jul-27 11:04N 40°20' W 051°17'0 0.1 24.9
2014-Jul-27 10:25N 40°20' W 051°17'0 1.8 24.9
2014-Jul-27 10:10N 40°20' W 051°17'0 0.0 24.9
2014-Jul-27 10:07N 40°20' W 051°17'112.8 24.9
2014-Jul-27 10:00N 40°19' W 051°18'0 0.0 24.9
2014-Jul-27 09:28N 40°19' W 051°18'1 1.7 24.9
2014-Jul-27 08:47N 40°18' W 051°20'0 0.0 24.9
2014-Jul-27 08:43N 40°18' W 051°20'1 2.5 24.9
2014-Jul-27 08:29N 40°18' W 051°20'1 2.5 24.9
2014-Jul-27 07:58N 40°17' W 051°21'1 2.2 25.0
2014-Jul-27 07:44N 40°17' W 051°21'0 0.0 25.0
2014-Jul-27 07:07N 40°17' W 051°21'118.6 25.0
2014-Jul-27 07:03N 40°16' W 051°23'0 0.0 25.0
2014-Jul-27 06:22N 40°16' W 051°23'319.2 25.0
2014-Jul-27 06:13N 40°14' W 051°25'0 0.0 25.0
2014-Jul-27 04:39N 40°14' W 051°25'551.7 25.0
2014-Jul-27 04:33N 40°10' W 051°29'0 0.0 25.0
2014-Jul-27 04:30N 40°10' W 051°29'0 0.0 25.0
2014-Jul-27 01:58N 40°10' W 051°29'0 0.0 25.1
2014-Jul-27 00:59N 40°10' W 051°29'178.8 25.1
2014-Jul-27 00:58N 40°09' W 051°31'0 0.0 25.1
2014-Jul-27 00:13N 40°09' W 051°31'013.2 25.1
2014-Jul-27 00:11N 40°09' W 051°31'1 1.7 25.1
2014-Jul-26 23:48N 40°08' W 051°32'1 3.1 25.1
2014-Jul-26 23:27N 40°07' W 051°32'2 1.8 25.1
2014-Jul-26 22:12N 40°06' W 051°35'0 0.0 25.1
2014-Jul-26 21:50N 40°06' W 051°35'0 0.1 25.1
2014-Jul-26 20:28N 40°06' W 051°35'0 0.6 25.1
2014-Jul-26 20:14N 40°06' W 051°35'2 1.7 25.1
2014-Jul-26 18:47N 40°05' W 051°38'1 8.5 25.1
2014-Jul-26 18:41N 40°05' W 051°39'0 0.0 25.1
2014-Jul-26 18:31N 40°05' W 051°39'0 0.0 25.1
2014-Jul-26 17:59N 40°05' W 051°39'3 2.6 25.1
2014-Jul-26 17:00N 40°04' W 051°42'0 0.0 25.1
2014-Jul-26 16:17N 40°04' W 051°42'1 9.7 25.1
2014-Jul-26 16:12N 40°04' W 051°41'3 1.8 25.1
2014-Jul-26 14:37N 40°03' W 051°45'392.6 25.1
2014-Jul-26 14:35N 40°02' W 051°49'0 0.0 25.1
2014-Jul-26 14:30N 40°02' W 051°49'0 0.0 25.1
2014-Jul-26 13:45N 40°02' W 051°49'2 0.9 25.1
2014-Jul-26 12:00N 40°02' W 051°51'011.6 25.1
2014-Jul-26 11:58N 40°02' W 051°50'2 1.6 25.1
2014-Jul-26 10:34N 40°02' W 051°53'111.2 25.1
2014-Jul-26 10:27N 40°01' W 051°55'0 0.0 25.1
2014-Jul-26 09:59N 40°01' W 051°55'0 1.1 25.1
2014-Jul-26 09:55N 40°01' W 051°55'2 1.9 25.1
2014-Jul-26 09:00N 40°01' W 051°57'0 5.2 25.2
2014-Jul-26 08:55N 40°01' W 051°57'120.0 25.2
2014-Jul-26 08:53N 40°01' W 051°58'0 0.0 25.2
2014-Jul-26 08:14N 40°01' W 051°58'110.8 25.2
2014-Jul-26 08:06N 40°00' W 052°00'1 0.9 25.2
2014-Jul-26 06:37N 40°00' W 052°02'0 0.0 25.3
2014-Jul-26 06:32N 40°00' W 052°02'213.7 25.3
2014-Jul-26 06:23N 39°60' W 052°04'0 0.0 25.3
2014-Jul-26 04:50N 39°60' W 052°04'637.5 25.4
2014-Jul-26 04:41N 40°00' W 052°12'2 0.7 25.4
2014-Jul-26 01:27N 40°01' W 052°14'0 0.0 25.4
2014-Jul-26 00:41N 40°01' W 052°14'0 0.0 25.4
2014-Jul-26 00:35N 40°01' W 052°14'1 2.8 25.4
2014-Jul-26 00:17N 40°01' W 052°15'0 0.0 25.4
2014-Jul-25 23:47N 40°01' W 052°15'1 1.4 25.5
2014-Jul-25 22:59N 40°01' W 052°17'1 8.0 25.5
2014-Jul-25 22:54N 40°01' W 052°18'0 0.0 25.5
2014-Jul-25 22:39N 40°01' W 052°18'4 7.4 25.5
2014-Jul-25 22:05N 40°02' W 052°23'1 0.9 25.5
2014-Jul-25 20:59N 40°02' W 052°22'1 3.5 25.6
2014-Jul-25 20:40N 40°03' W 052°23'3 1.8 25.6
2014-Jul-25 18:58N 40°03' W 052°26'0 0.0
2014-Jul-25 18:55N 40°03' W 052°26'1 1.8 25.7
2014-Jul-25 18:10N 40°03' W 052°28'3 2.7 25.6
2014-Jul-25 17:13N 40°04' W 052°31'3 3.9 25.6
2014-Jul-25 16:27N 40°05' W 052°35'0 0.0 25.6
2014-Jul-25 14:57N 40°05' W 052°35'329.0 25.5
2014-Jul-25 14:50N 40°07' W 052°39'0 0.0 25.5
2014-Jul-25 14:45N 40°07' W 052°39'0 0.0 25.4
2014-Jul-25 14:06N 40°07' W 052°39'0 0.0 25.4
2014-Jul-25 13:14N 40°07' W 052°39'1 1.9 25.3
2014-Jul-25 12:26N 40°07' W 052°41'325.3 25.3
2014-Jul-25 12:19N 40°09' W 052°44'0 0.0 25.3
2014-Jul-25 10:55N 40°09' W 052°44'136.6 25.2
2014-Jul-25 10:53N 40°09' W 052°45'330.9 25.2
2014-Jul-25 10:48N 40°10' W 052°49'3 8.6 25.2
2014-Jul-25 10:30N 40°09' W 052°45'338.7 25.2
2014-Jul-25 10:26N 40°10' W 052°49'0 0.0 25.2
2014-Jul-25 09:20N 40°10' W 052°49'0 1.7 25.2
2014-Jul-25 09:10N 40°10' W 052°49'118.5 25.2
2014-Jul-25 09:06N 40°11' W 052°50'0 0.0 25.2
2014-Jul-25 09:03N 40°11' W 052°50'1 5.9 25.2
2014-Jul-25 08:50N 40°10' W 052°49'1 2.4 25.2
2014-Jul-25 08:18N 40°11' W 052°50'224.9
2014-Jul-25 08:14N 40°11' W 052°52'0 0.0 25.2
2014-Jul-25 07:28N 40°11' W 052°52'1 6.7 25.2
2014-Jul-25 07:21N 40°12' W 052°53'1 2.8 25.2
2014-Jul-25 07:07N 40°12' W 052°54'1024.7 25.2
2014-Jul-25 06:42N 40°17' W 053°05'0 0.0 25.3
2014-Jul-25 06:33N 40°17' W 053°05'0 0.0 25.3
2014-Jul-25 05:00N 40°17' W 053°05'0 0.0 25.3
2014-Jul-25 04:55N 40°17' W 053°05'0 0.0 25.3
2014-Jul-25 04:49N 40°17' W 053°05'1 0.5 25.3
2014-Jul-25 01:47N 40°17' W 053°07'0 0.0 25.4
2014-Jul-25 01:39N 40°17' W 053°07'0 0.2 25.4
2014-Jul-25 00:59N 40°17' W 053°07'187.7 25.4
2014-Jul-25 00:58N 40°18' W 053°09'0 0.0 25.4
2014-Jul-25 00:09N 40°18' W 053°09'211.7 25.4
2014-Jul-24 23:59N 40°19' W 053°10'2 2.7 25.4
2014-Jul-24 23:18N 40°20' W 053°12'218.2 25.4
2014-Jul-24 23:12N 40°19' W 053°10'2 2.5 25.3
2014-Jul-24 22:28N 40°20' W 053°12'2 1.9 25.3
2014-Jul-24 21:34N 40°20' W 053°15'1 1.6 25.2
2014-Jul-24 21:00N 40°20' W 053°16'0 2.3 25.3
2014-Jul-24 20:50N 40°21' W 053°16'3 1.9 25.3
2014-Jul-24 19:26N 40°21' W 053°20'1 6.1 25.1
2014-Jul-24 19:13N 40°22' W 053°21'0 0.0 25.1
2014-Jul-24 19:10N 40°22' W 053°21'0 0.0 25.1
2014-Jul-24 19:06N 40°22' W 053°21'0 0.0 25.1
2014-Jul-24 18:20N 40°22' W 053°21'4 4.2 25.1
2014-Jul-24 17:26N 40°23' W 053°26'0 0.5 25.0
2014-Jul-24 16:38N 40°23' W 053°25'0 0.6 25.0
2014-Jul-24 15:59N 40°23' W 053°26'3 4.4 25.0
2014-Jul-24 15:18N 40°24' W 053°30'2 7.0 24.8
2014-Jul-24 14:58N 40°25' W 053°32'0 0.0 24.7
2014-Jul-24 14:26N 40°25' W 053°32'0 0.0 24.5
2014-Jul-24 13:40N 40°25' W 053°32'0 0.8 24.4
2014-Jul-24 13:33N 40°25' W 053°33'2 2.6 24.4
2014-Jul-24 12:41N 40°25' W 053°35'575.2 24.4
2014-Jul-24 12:37N 40°26' W 053°42'0 0.0 24.4
2014-Jul-24 11:19N 40°26' W 053°42'0 0.0 24.4
2014-Jul-24 10:59N 40°26' W 053°42'0 0.0 24.4
2014-Jul-24 10:58N 40°26' W 053°42'0 0.0 24.4
2014-Jul-24 09:46N 40°26' W 053°42'1 4.7 24.4
2014-Jul-24 09:37N 40°26' W 053°43'0 0.0 24.4
2014-Jul-24 09:23N 40°26' W 053°43'3 3.2 24.4
2014-Jul-24 08:28N 40°26' W 053°47'0 1.0 24.4
2014-Jul-24 08:03N 40°26' W 053°47'0 1.1 24.4
2014-Jul-24 07:41N 40°26' W 053°47'024.7
2014-Jul-24 07:40N 40°26' W 053°47'1 5.5 24.4
2014-Jul-24 07:34N 40°26' W 053°48'0 0.0 24.4
2014-Jul-24 06:55N 40°26' W 053°48'0 2.9 24.4
2014-Jul-24 06:48N 40°26' W 053°48'3 1.6 24.4
2014-Jul-24 05:12N 40°26' W 053°52'641.3 24.4
2014-Jul-24 05:04N 40°27' W 053°59'0 0.0 24.4
2014-Jul-24 02:06N 40°27' W 053°59'220.5 24.5
2014-Jul-24 01:59N 40°27' W 054°02'0 0.0 24.5
2014-Jul-24 01:22N 40°27' W 054°02'0 0.0 24.6
2014-Jul-24 01:20N 40°27' W 054°02'0 0.1 24.6
2014-Jul-24 00:28N 40°27' W 054°01'2 3.2 24.7
2014-Jul-23 23:43N 40°27' W 054°05'2137.7 24.7
2014-Jul-23 23:42N 40°27' W 054°08'0 0.0 24.7
2014-Jul-23 23:38N 40°27' W 054°08'0 0.0 24.7
2014-Jul-23 23:33N 40°27' W 054°08'0 0.0 24.7
2014-Jul-23 22:45N 40°27' W 054°08'2 2.3 24.9
2014-Jul-23 22:00N 40°27' W 054°10'3 4.9 24.9
2014-Jul-23 21:28N 40°26' W 054°13'0 0.0 24.9
2014-Jul-23 20:59N 40°26' W 054°13'126.3 24.9
2014-Jul-23 20:56N 40°26' W 054°15'1 0.9 24.9
2014-Jul-23 19:48N 40°26' W 054°16'3 6.0 25.1
2014-Jul-23 19:20N 40°25' W 054°20'222.8
2014-Jul-23 19:14N 40°24' W 054°22'0 0.0
2014-Jul-23 18:30N 40°24' W 054°22'0 0.0 25.5
2014-Jul-23 17:38N 40°24' W 054°22'3 2.8 25.7
2014-Jul-23 16:44N 40°23' W 054°26'3 2.5 25.6
2014-Jul-23 15:37N 40°23' W 054°29'0 0.0 25.3
2014-Jul-23 15:30N 40°23' W 054°29'410.4
2014-Jul-23 15:06N 40°21' W 054°34'0 0.0 25.3
2014-Jul-23 14:45N 40°21' W 054°34'7 8.8 25.1
2014-Jul-23 14:00N 40°19' W 054°42'0 0.0 24.8
2014-Jul-23 13:00N 40°19' W 054°42'0 0.0 24.4
2014-Jul-23 12:13N 40°19' W 054°42'0 0.0 24.2
2014-Jul-23 11:41N 40°19' W 054°42'0 0.0 24.2
2014-Jul-23 10:10N 40°19' W 054°42'0 5.8 24.2
2014-Jul-23 10:07N 40°19' W 054°42'435.8 24.2
2014-Jul-23 10:00N 40°18' W 054°47'439.0 24.2
2014-Jul-23 09:54N 40°19' W 054°42'411.2 24.2
2014-Jul-23 09:33N 40°18' W 054°47'0 0.0 24.2
2014-Jul-23 08:14N 40°18' W 054°47'1 2.9 24.2
2014-Jul-23 07:51N 40°17' W 054°48'239.0 24.2
2014-Jul-23 07:48N 40°17' W 054°51'0 0.0 24.2
2014-Jul-23 06:59N 40°17' W 054°51'480.3 24.2
2014-Jul-23 06:56N 40°15' W 054°55'0 0.0 24.2
2014-Jul-23 05:23N 40°15' W 054°55'740.3 24.2
2014-Jul-23 05:12N 40°11' W 055°04'0 0.0 24.2
2014-Jul-23 02:27N 40°11' W 055°04'772.2 24.2
2014-Jul-23 02:21N 40°07' W 055°12'0 0.0 24.2
2014-Jul-23 01:38N 40°07' W 055°12'0 0.0 24.2
2014-Jul-23 00:45N 40°07' W 055°12'0 0.0 24.3
2014-Jul-23 00:13N 40°07' W 055°12'0 1.6 24.3
2014-Jul-22 23:59N 40°07' W 055°12'438.0 24.3
2014-Jul-22 23:53N 40°05' W 055°15'0 0.0 24.3
2014-Jul-22 23:09N 40°05' W 055°15'0 0.0 24.3
2014-Jul-22 23:00N 40°05' W 055°15'3 2.2 24.3
2014-Jul-22 21:52N 40°03' W 055°18'0 0.0 24.3
2014-Jul-22 21:13N 40°03' W 055°18'438.9 24.3
2014-Jul-22 21:07N 40°01' W 055°22'7 7.2 24.3
2014-Jul-22 20:12N 39°56' W 055°28'0 0.0 24.3
2014-Jul-22 19:31N 39°56' W 055°28'0 0.0 24.3
2014-Jul-22 18:41N 39°56' W 055°28'0 0.0 24.3
2014-Jul-22 18:36N 39°56' W 055°28'0 0.0 24.3
2014-Jul-22 18:34N 39°56' W 055°28'0 0.0
2014-Jul-22 18:27N 39°56' W 055°28'2 2.5 24.3
2014-Jul-22 17:49N 39°55' W 055°29'0 0.0 24.3
2014-Jul-22 17:00N 39°55' W 055°29'5 4.2 24.3
2014-Jul-22 15:52N 39°51' W 055°34'0 0.0 24.2
2014-Jul-22 15:18N 39°51' W 055°34'421.8 24.2
2014-Jul-22 15:07N 39°48' W 055°37'810.6 24.2
2014-Jul-22 14:21N 39°44' W 055°46'0 0.0 24.2
2014-Jul-22 12:32N 39°44' W 055°46'0 0.1 24.2
2014-Jul-22 10:34N 39°44' W 055°46'1 4.2 24.2
2014-Jul-22 10:22N 39°43' W 055°45'5 7.5 24.2
2014-Jul-22 09:39N 39°41' W 055°52'1 1.2 24.2
2014-Jul-22 08:56N 39°42' W 055°51'210.2 24.2
2014-Jul-22 08:44N 39°41' W 055°53'0 0.0 24.2
2014-Jul-22 07:57N 39°41' W 055°53'3184.4 24.2
2014-Jul-22 07:56N 39°40' W 055°57'0 0.1 24.2
2014-Jul-22 07:13N 39°40' W 055°57'211.1 24.2
2014-Jul-22 07:00N 39°38' W 055°59'1115.0 24.2
2014-Jul-22 06:18N 39°33' W 056°11'0 0.0 24.2
2014-Jul-22 05:31N 39°33' W 056°11'0 0.0 24.2
2014-Jul-22 02:49N 39°33' W 056°11'3 3.1 24.2
2014-Jul-22 01:59N 39°32' W 056°14'2 2.4 24.2
2014-Jul-22 01:11N 39°31' W 056°16'0 0.0 24.2
2014-Jul-22 01:05N 39°31' W 056°16'330.7 24.2
2014-Jul-22 01:00N 39°30' W 056°19'2 4.0 24.2
2014-Jul-22 00:23N 39°30' W 056°23'0 0.0 24.2
2014-Jul-21 23:31N 39°30' W 056°23'3 7.9 24.2
2014-Jul-21 23:08N 39°27' W 056°25'0 0.0 24.2
2014-Jul-21 22:14N 39°27' W 056°25'265.3 24.2
2014-Jul-21 22:12N 39°27' W 056°28'0 0.0 24.2
2014-Jul-21 21:28N 39°27' W 056°28'0 0.0 24.2
2014-Jul-21 21:23N 39°27' W 056°28'120.9 24.2
2014-Jul-21 21:19N 39°27' W 056°30'0 0.0 24.2
2014-Jul-21 20:40N 39°27' W 056°30'578.5 24.2
2014-Jul-21 20:36N 39°28' W 056°37'0 0.0 24.2
2014-Jul-21 19:43N 39°28' W 056°37'2 3.2 24.2
2014-Jul-21 18:56N 39°26' W 056°35'0 0.0 24.2
2014-Jul-21 18:53N 39°26' W 056°35'1096.5 24.2
2014-Jul-21 18:47N 39°27' W 056°48'0 0.0 24.2
2014-Jul-21 17:59N 39°27' W 056°48'0 0.0 24.2
2014-Jul-21 17:11N 39°27' W 056°48'1 0.6 24.2
2014-Jul-21 15:29N 39°26' W 056°48'1 1.7 24.2
2014-Jul-21 14:41N 39°27' W 056°49'744.5 24.2
2014-Jul-21 14:31N 39°27' W 056°59'0 0.0 24.2
2014-Jul-21 13:48N 39°27' W 056°59'0 0.0 24.2
2014-Jul-21 11:59N 39°27' W 056°59'1 0.5 24.2
2014-Jul-21 10:58N 39°27' W 056°58'213.7 24.2
2014-Jul-21 10:49N 39°28' W 057°01'2 2.1 24.2
2014-Jul-21 09:51N 39°29' W 057°03'0 0.8 24.1
2014-Jul-21 09:13N 39°29' W 057°02'236.3 24.1
2014-Jul-21 09:10N 39°30' W 057°04'0 0.1 24.1
2014-Jul-21 08:14N 39°30' W 057°04'124.7 24.1
2014-Jul-21 08:11N 39°31' W 057°05'0 0.0 24.1
2014-Jul-21 07:33N 39°31' W 057°05'0 0.0 24.1
2014-Jul-21 07:30N 39°31' W 057°05'0 0.0
2014-Jul-21 07:28N 39°31' W 057°05'423.4 24.2
2014-Jul-21 07:19N 39°34' W 057°07'0 0.0 24.2
2014-Jul-21 05:45N 39°34' W 057°07'547.7 24.2
2014-Jul-21 05:39N 39°38' W 057°09'0 0.0 24.2
2014-Jul-21 05:36N 39°38' W 057°09'0 0.0 24.2
2014-Jul-21 03:59N 39°38' W 057°09'0 0.0 24.0
2014-Jul-21 03:08N 39°38' W 057°09'0 0.3 24.0
2014-Jul-21 02:19N 39°39' W 057°10'1 1.7 24.0
2014-Jul-21 01:31N 39°40' W 057°09'2 2.9 24.0
2014-Jul-21 00:43N 39°42' W 057°08'0 0.0 24.0
2014-Jul-20 23:51N 39°42' W 057°08'1 4.6 24.0
2014-Jul-20 23:39N 39°43' W 057°09'1 1.6 24.1
2014-Jul-20 22:58N 39°44' W 057°09'2 2.5 24.1
2014-Jul-20 21:57N 39°46' W 057°08'2 5.3 24.0
2014-Jul-20 21:34N 39°48' W 057°07'0 0.0 24.1
2014-Jul-20 21:31N 39°48' W 057°07'0 0.0 24.1
2014-Jul-20 20:57N 39°48' W 057°07'2 3.5 24.1
2014-Jul-20 20:14N 39°51' W 057°07'0 0.0 24.1
2014-Jul-20 19:56N 39°51' W 057°07'1 1.7 24.1
2014-Jul-20 19:24N 39°52' W 057°06'0 1.8 24.0
2014-Jul-20 19:13N 39°52' W 057°07'0 0.0 24.0
2014-Jul-20 19:04N 39°52' W 057°07'446.5 24.0
2014-Jul-20 18:59N 39°55' W 057°04'0 0.0 24.0
2014-Jul-20 18:13N 39°55' W 057°04'0 0.1 24.0
2014-Jul-20 17:24N 39°55' W 057°04'4 2.3 24.0
2014-Jul-20 15:41N 39°59' W 057°03'0 0.0 24.0
2014-Jul-20 15:00N 39°59' W 057°03'322.6 24.0
2014-Jul-20 14:53N 40°02' W 057°02'0 0.0 24.0
2014-Jul-20 14:08N 40°02' W 057°02'0 0.0 24.0
2014-Jul-20 13:20N 40°02' W 057°02'322.7 24.0
2014-Jul-20 13:13N 40°04' W 057°02'3 3.8 24.0
2014-Jul-20 12:28N 40°07' W 057°01'0 0.0 24.0
2014-Jul-20 12:21N 40°07' W 057°01'0 0.0 24.0
2014-Jul-20 11:24N 40°07' W 057°01'0 0.0 24.0
2014-Jul-20 11:21N 40°07' W 057°01'0 0.0 24.0
2014-Jul-20 11:14N 40°07' W 057°01'2 1.4 24.0
2014-Jul-20 10:00N 40°07' W 056°59'2 8.4 24.0
2014-Jul-20 09:48N 40°08' W 057°01'223.5 24.0
2014-Jul-20 09:44N 40°08' W 056°59'2 1.5 24.0
2014-Jul-20 08:28N 40°09' W 056°59'210.1 23.9
2014-Jul-20 08:19N 40°11' W 056°59'1 4.0 23.9
2014-Jul-20 08:08N 40°10' W 056°59'1 4.8 23.9
2014-Jul-20 07:59N 40°11' W 056°59'0 0.0 23.9
2014-Jul-20 07:38N 40°11' W 056°59'0 2.6 23.9
2014-Jul-20 07:31N 40°11' W 056°59'910.6 23.9
2014-Jul-20 06:42N 40°19' W 056°54'0 0.0 24.0
2014-Jul-20 05:54N 40°19' W 056°54'0 0.0 24.0
2014-Jul-20 05:47N 40°19' W 056°54'0 0.0 24.0
2014-Jul-20 01:43N 40°19' W 056°54'3 3.7 24.1
2014-Jul-20 01:00N 40°20' W 056°51'0 0.0
2014-Jul-20 00:12N 40°20' W 056°51'0 0.0 24.2
2014-Jul-20 00:08N 40°20' W 056°51'0 9.0 24.2
2014-Jul-20 00:05N 40°20' W 056°50'3 3.7 24.2
2014-Jul-19 23:22N 40°23' W 056°50'0 0.0 24.2
2014-Jul-19 22:32N 40°23' W 056°50'0 0.0 24.2
2014-Jul-19 21:44N 40°23' W 056°50'0 0.0
2014-Jul-19 21:30N 40°23' W 056°50'1 1.8 24.2
2014-Jul-19 20:43N 40°24' W 056°50'0 0.0 24.4
2014-Jul-19 20:08N 40°24' W 056°50'211.7 24.5
2014-Jul-19 20:00N 40°26' W 056°49'0 0.0 24.5
2014-Jul-19 19:50N 40°26' W 056°49'0 0.0 24.5
2014-Jul-19 19:14N 40°26' W 056°49'0 0.0 24.5
2014-Jul-19 19:11N 40°26' W 056°49'0 0.2 24.5
2014-Jul-19 18:24N 40°25' W 056°49'   24.5

Dump ship's entire track history